Time;durP1;ratioP1;P1;durP2;ratioP2;P2;SDS_P1;SDS_P2;PMS_P1;PMS_P2;Temp;Humidity;BMP_temperature;BMP_pressure;BME280_temperature;BME280_humidity;BME280_pressure;Samples;Min_cycle;Max_cycle;Signal;HPM_P1;HPM_P2
2023/12/06 00:01:00;;;;;;;110.50;38.92;;;;;;;1.42;100.00;100718.28;4953116;28;20142;-86
2023/12/06 00:03:26;;;;;;;124.22;44.58;;;;;;;1.50;100.00;100709.88;4947234;28;20035;-86
2023/12/06 00:05:52;;;;;;;105.57;39.70;;;;;;;1.54;100.00;100718.69;4932543;29;20044;-85
2023/12/06 00:08:17;;;;;;;113.10;41.13;;;;;;;1.41;100.00;100713.84;4953905;28;20062;-85
2023/12/06 00:10:42;;;;;;;107.47;41.47;;;;;;;1.43;100.00;100716.50;4953156;28;20093;-85
2023/12/06 00:13:08;;;;;;;98.10;38.40;;;;;;;1.43;100.00;100717.34;4938093;29;20035;-86
2023/12/06 00:15:34;;;;;;;105.72;40.50;;;;;;;1.51;100.00;100722.44;4906038;29;20377;-86
2023/12/06 00:17:59;;;;;;;99.97;39.83;;;;;;;1.48;100.00;100725.25;4922304;29;20066;-86
2023/12/06 00:20:25;;;;;;;112.03;41.78;;;;;;;1.47;100.00;100718.09;4905991;29;20050;-85
2023/12/06 00:22:50;;;;;;;102.03;38.58;;;;;;;1.47;100.00;100731.59;4921186;28;20043;-86
2023/12/06 00:25:16;;;;;;;110.53;41.78;;;;;;;1.57;100.00;100726.66;4950942;28;20067;-85
2023/12/06 00:27:42;;;;;;;113.82;41.63;;;;;;;1.44;100.00;100724.53;4953307;28;20397;-85
2023/12/06 00:30:08;;;;;;;103.75;41.15;;;;;;;1.51;100.00;100740.41;4937356;29;20054;-86
2023/12/06 00:32:33;;;;;;;109.97;40.53;;;;;;;1.49;100.00;100740.47;4921394;29;20043;-86
2023/12/06 00:34:59;;;;;;;111.35;41.45;;;;;;;1.55;100.00;100742.06;4921381;29;20031;-86
2023/12/06 00:37:24;;;;;;;107.10;40.10;;;;;;;1.53;100.00;100741.25;4905540;29;20489;-85
2023/12/06 00:39:49;;;;;;;108.30;42.03;;;;;;;1.50;100.00;100739.56;4937171;29;20047;-86
2023/12/06 00:42:15;;;;;;;104.55;39.55;;;;;;;1.49;100.00;100736.91;4937148;29;20039;-86
2023/12/06 00:44:40;;;;;;;108.53;40.60;;;;;;;1.47;100.00;100751.34;4921080;29;20143;-85
2023/12/06 00:47:05;;;;;;;115.82;41.78;;;;;;;1.44;100.00;100754.19;4920806;29;20093;-86
2023/12/06 00:49:31;;;;;;;102.38;41.90;;;;;;;1.47;100.00;100751.34;4933787;29;20779;-86
2023/12/06 00:51:58;;;;;;;118.13;42.58;;;;;;;1.54;100.00;100760.06;4920889;29;20024;-86
2023/12/06 00:54:23;;;;;;;112.63;42.72;;;;;;;1.54;100.00;100765.47;4921238;29;20035;-85
2023/12/06 00:56:48;;;;;;;123.50;44.05;;;;;;;1.55;100.00;100766.34;4920816;29;20042;-85
2023/12/06 00:59:14;;;;;;;114.88;42.95;;;;;;;1.53;100.00;100763.69;4904390;29;20027;-86
2023/12/06 01:01:39;;;;;;;116.90;42.90;;;;;;;1.61;100.00;100776.88;4931844;29;20031;-86
2023/12/06 01:04:05;;;;;;;111.85;42.13;;;;;;;1.64;100.00;100774.91;4936174;28;20066;-85
2023/12/06 01:06:30;;;;;;;112.78;42.95;;;;;;;1.54;100.00;100775.38;4920861;29;20496;-86
2023/12/06 01:08:55;;;;;;;122.85;43.55;;;;;;;1.67;100.00;100784.69;4949103;28;20040;-86
2023/12/06 01:11:21;;;;;;;117.05;42.85;;;;;;;1.61;100.00;100783.13;4944246;28;20028;-86
2023/12/06 01:13:46;;;;;;;107.07;41.95;;;;;;;1.62;100.00;100789.41;4950031;29;20054;-86
2023/12/06 01:16:12;;;;;;;116.50;40.63;;;;;;;1.68;100.00;100799.06;4920445;29;20035;-86
2023/12/06 01:18:37;;;;;;;111.00;43.40;;;;;;;1.66;100.00;100801.84;4951616;28;20062;-85
2023/12/06 01:21:03;;;;;;;112.43;42.47;;;;;;;1.70;100.00;100808.84;4905024;29;20531;-86
2023/12/06 01:23:28;;;;;;;124.30;43.95;;;;;;;1.67;100.00;100802.69;4930796;29;20542;-86
2023/12/06 01:25:53;;;;;;;108.00;42.60;;;;;;;1.72;100.00;100804.28;4921001;29;20497;-86
2023/12/06 01:28:20;;;;;;;118.15;43.28;;;;;;;1.70;100.00;100807.97;4920152;28;20031;-86
2023/12/06 01:30:46;;;;;;;112.05;42.20;;;;;;;1.71;100.00;100807.91;4920821;29;20035;-85
2023/12/06 01:33:11;;;;;;;113.40;42.80;;;;;;;1.70;100.00;100814.22;4920783;29;20901;-85
2023/12/06 01:35:37;;;;;;;120.03;44.45;;;;;;;1.74;100.00;100812.28;4935714;29;20031;-85
2023/12/06 01:38:02;;;;;;;113.43;42.35;;;;;;;1.77;100.00;100822.94;4920101;28;20036;-85
2023/12/06 01:40:28;;;;;;;123.88;42.72;;;;;;;1.79;100.00;100824.66;4939473;29;20050;-85
2023/12/06 01:42:53;;;;;;;120.38;43.25;;;;;;;1.76;100.00;100827.47;4933311;29;20040;-86
2023/12/06 01:45:18;;;;;;;126.55;42.75;;;;;;;1.77;100.00;100818.44;4935257;29;20058;-85
2023/12/06 01:47:45;;;;;;;125.75;44.90;;;;;;;1.79;100.00;100827.34;4951952;29;20043;-85
2023/12/06 01:50:13;;;;;;;134.02;43.65;;;;;;;1.79;100.00;100830.03;4952782;28;20042;-85
2023/12/06 01:52:38;;;;;;;130.13;44.38;;;;;;;1.80;100.00;100825.50;4951532;29;20035;-85
2023/12/06 01:55:04;;;;;;;132.82;44.05;;;;;;;1.78;100.00;100825.56;4915656;29;20031;-85
2023/12/06 01:57:30;;;;;;;138.75;44.50;;;;;;;1.82;100.00;100838.00;4937783;29;20055;-85
2023/12/06 01:59:56;;;;;;;124.90;40.70;;;;;;;1.82;100.00;100840.72;4935189;28;20109;-84
2023/12/06 02:02:22;;;;;;;114.90;39.05;;;;;;;1.80;100.00;100844.41;4920028;29;20386;-85
2023/12/06 02:04:48;;;;;;;131.93;41.40;;;;;;;1.84;100.00;100851.44;4947954;28;20024;-86
2023/12/06 02:07:15;;;;;;;143.63;44.10;;;;;;;1.80;100.00;100847.09;4919972;29;20027;-85
2023/12/06 02:09:41;;;;;;;138.07;43.85;;;;;;;1.85;100.00;100845.09;4951176;28;20030;-85
2023/12/06 02:12:06;;;;;;;129.38;42.55;;;;;;;1.83;100.00;100844.28;4954401;29;20043;-84
2023/12/06 02:14:34;;;;;;;120.60;38.95;;;;;;;1.80;100.00;100848.00;4922814;28;20071;-84
2023/12/06 02:17:04;;;;;;;118.78;40.58;;;;;;;1.89;100.00;100857.53;4955643;29;20445;-84
2023/12/06 02:19:31;;;;;;;130.40;42.65;;;;;;;1.84;100.00;100849.63;4937324;29;20085;-84
2023/12/06 02:21:57;;;;;;;133.32;41.88;;;;;;;1.83;100.00;100846.97;4935727;29;20039;-84
2023/12/06 02:24:26;;;;;;;120.32;42.30;;;;;;;1.86;100.00;100854.94;4949444;28;20042;-85
2023/12/06 02:26:54;;;;;;;122.95;42.08;;;;;;;1.82;100.00;100856.00;4955560;28;20039;-84
2023/12/06 02:29:19;;;;;;;117.03;42.40;;;;;;;1.84;100.00;100856.84;4940255;29;20477;-84
2023/12/06 02:31:46;;;;;;;127.07;41.20;;;;;;;1.88;100.00;100863.84;4970607;28;20031;-84
2023/12/06 02:34:17;;;;;;;130.43;43.10;;;;;;;1.85;100.00;100858.59;4954494;28;20027;-85
2023/12/06 02:36:48;;;;;;;109.10;39.35;;;;;;;1.89;100.00;100859.34;4937415;28;20023;-85
2023/12/06 02:39:18;;;;;;;121.30;41.15;;;;;;;1.86;100.00;100867.56;4955474;29;20039;-85
2023/12/06 02:41:44;;;;;;;117.60;40.42;;;;;;;1.94;100.00;100866.28;4949776;28;20035;-84
2023/12/06 02:44:10;;;;;;;114.95;40.45;;;;;;;1.90;100.00;100866.47;4938075;29;20039;-84
2023/12/06 02:46:38;;;;;;;114.72;40.45;;;;;;;1.89;100.00;100871.00;4939178;29;20039;-84
2023/12/06 02:49:03;;;;;;;110.55;39.53;;;;;;;1.90;100.00;100867.34;4938463;29;20039;-84
2023/12/06 02:51:29;;;;;;;120.97;40.75;;;;;;;1.86;100.00;100863.03;4906414;28;20034;-85
2023/12/06 02:53:54;;;;;;;110.70;38.30;;;;;;;1.81;100.00;100881.25;4923799;29;20478;-84
2023/12/06 02:56:20;;;;;;;111.45;39.20;;;;;;;1.88;100.00;100871.09;4922161;29;20047;-84
2023/12/06 02:58:45;;;;;;;117.22;41.22;;;;;;;1.88;100.00;100876.47;4922980;29;20123;-85
2023/12/06 03:01:11;;;;;;;105.63;39.15;;;;;;;1.87;100.00;100864.81;4936563;28;20043;-85
2023/12/06 03:03:36;;;;;;;111.88;39.95;;;;;;;1.89;100.00;100870.16;4936794;29;20041;-84
2023/12/06 03:06:02;;;;;;;113.90;39.15;;;;;;;1.93;100.00;100872.63;4922987;29;20493;-84
2023/12/06 03:08:27;;;;;;;121.32;40.08;;;;;;;1.95;100.00;100870.75;4952918;28;20094;-84
2023/12/06 03:10:52;;;;;;;110.32;39.65;;;;;;;1.91;100.00;100873.66;4920358;29;20042;-84
2023/12/06 03:13:18;;;;;;;104.18;38.78;;;;;;;1.95;100.00;100876.16;4935397;29;20036;-84
2023/12/06 03:15:44;;;;;;;122.75;42.13;;;;;;;2.03;100.00;100878.50;4953067;28;20031;-84
2023/12/06 03:18:10;;;;;;;107.70;39.53;;;;;;;1.99;100.00;100883.16;4906892;29;20472;-84
2023/12/06 03:20:36;;;;;;;106.45;39.80;;;;;;;1.98;100.00;100878.72;4922431;29;20237;-85
2023/12/06 03:23:03;;;;;;;102.97;40.40;;;;;;;2.03;100.00;100886.59;4942962;28;20114;-84
2023/12/06 03:25:28;;;;;;;101.22;40.17;;;;;;;1.97;100.00;100884.19;4922070;29;20035;-83
2023/12/06 03:27:54;;;;;;;107.38;38.45;;;;;;;2.01;100.00;100888.50;4922054;29;20521;-84
2023/12/06 03:30:20;;;;;;;106.45;40.28;;;;;;;1.99;100.00;100875.06;4922004;29;20126;-84
2023/12/06 03:32:45;;;;;;;95.93;39.80;;;;;;;1.96;100.00;100872.50;4906445;29;20229;-84
2023/12/06 03:35:11;;;;;;;94.55;37.25;;;;;;;2.03;100.00;100875.81;4936721;29;20145;-83
2023/12/06 03:37:37;;;;;;;104.72;39.67;;;;;;;2.07;100.00;100890.09;4955598;28;20623;-84
2023/12/06 03:40:02;;;;;;;103.63;39.50;;;;;;;2.11;100.00;100883.59;4938161;29;20044;-84
2023/12/06 03:42:28;;;;;;;107.00;40.63;;;;;;;2.11;100.00;100887.16;4918935;29;20038;-84
2023/12/06 03:44:55;;;;;;;89.65;37.33;;;;;;;2.09;100.00;100891.75;4922255;28;20086;-84
2023/12/06 03:47:22;;;;;;;93.53;38.83;;;;;;;2.14;100.00;100889.72;4923026;29;20032;-84
2023/12/06 03:49:48;;;;;;;94.47;37.53;;;;;;;2.11;100.00;100892.56;4937986;29;20050;-85
2023/12/06 03:52:13;;;;;;;89.50;38.58;;;;;;;2.15;100.00;100896.03;4936286;29;20058;-84
2023/12/06 03:54:39;;;;;;;87.22;36.90;;;;;;;2.16;100.00;100898.63;4921259;28;20039;-84
2023/12/06 03:57:04;;;;;;;93.82;39.42;;;;;;;2.16;100.00;100908.56;4953941;29;20031;-83
2023/12/06 03:59:30;;;;;;;92.97;38.40;;;;;;;2.13;100.00;100898.78;4945199;28;20401;-84
2023/12/06 04:01:55;;;;;;;92.82;37.47;;;;;;;2.12;100.00;100912.34;4920898;29;20457;-84
2023/12/06 04:04:20;;;;;;;92.40;37.28;;;;;;;2.14;100.00;100913.16;4953353;29;20046;-84
2023/12/06 04:06:46;;;;;;;92.55;38.10;;;;;;;2.16;100.00;100913.97;4905767;29;20037;-84
2023/12/06 04:09:11;;;;;;;98.75;39.53;;;;;;;2.14;100.00;100922.13;4954746;29;20559;-84
2023/12/06 04:11:37;;;;;;;90.57;37.85;;;;;;;2.16;100.00;100920.25;4953078;28;20452;-84
2023/12/06 04:14:03;;;;;;;89.65;37.20;;;;;;;2.15;100.00;100923.91;4937427;29;20059;-83
2023/12/06 04:16:31;;;;;;;83.43;36.72;;;;;;;2.18;100.00;100921.06;4952964;29;20047;-84
2023/12/06 04:18:57;;;;;;;86.93;37.53;;;;;;;2.18;100.00;100923.78;4951910;28;20038;-84
2023/12/06 04:21:22;;;;;;;75.93;34.30;;;;;;;2.18;100.00;100939.06;4937158;29;20054;-84
2023/12/06 04:23:48;;;;;;;88.45;36.92;;;;;;;2.15;100.00;100934.72;4954074;28;20054;-84
2023/12/06 04:26:14;;;;;;;80.55;36.67;;;;;;;2.21;100.00;100930.84;4957268;28;20031;-84
2023/12/06 04:28:40;;;;;;;86.38;37.15;;;;;;;2.19;100.00;100916.53;4951763;29;20469;-84
2023/12/06 04:31:07;;;;;;;82.18;36.72;;;;;;;2.17;100.00;100918.44;4956931;28;20042;-93
2023/12/06 04:33:33;;;;;;;84.32;39.05;;;;;;;2.23;100.00;100928.97;4941186;29;20023;-93
2023/12/06 04:35:59;;;;;;;77.65;36.00;;;;;;;2.23;100.00;100931.69;4937153;29;20039;-93
2023/12/06 04:38:24;;;;;;;83.63;36.83;;;;;;;2.28;100.00;100935.06;4924584;29;20122;-93
2023/12/06 04:40:51;;;;;;;83.90;35.50;;;;;;;2.27;100.00;100932.44;4940606;29;20397;-93
2023/12/06 04:43:17;;;;;;;82.07;35.80;;;;;;;2.28;100.00;100935.06;4957314;29;20049;-92
2023/12/06 04:45:42;;;;;;;87.63;36.47;;;;;;;2.30;100.00;100943.97;4943368;29;20103;-92
2023/12/06 04:48:09;;;;;;;73.03;35.42;;;;;;;2.32;100.00;100943.91;4956384;29;20114;-91
2023/12/06 04:50:34;;;;;;;73.15;34.65;;;;;;;2.37;100.00;100947.28;4940239;29;20110;-92
2023/12/06 04:53:01;;;;;;;71.70;33.63;;;;;;;2.37;100.00;100949.97;4940177;29;20027;-91
2023/12/06 04:55:27;;;;;;;79.15;34.80;;;;;;;2.36;100.00;100946.41;4949970;29;20039;-92
2023/12/06 04:57:52;;;;;;;66.70;34.10;;;;;;;2.38;100.00;100954.44;4955865;28;20090;-92
2023/12/06 05:00:18;;;;;;;76.30;35.17;;;;;;;2.39;100.00;100957.09;4920100;29;20114;-91
2023/12/06 05:02:45;;;;;;;74.90;33.75;;;;;;;2.39;100.00;100946.28;4955965;29;20059;-92
2023/12/06 05:05:12;;;;;;;76.28;33.28;;;;;;;2.41;100.00;100958.81;4922246;29;20032;-93
2023/12/06 05:07:38;;;;;;;71.93;33.60;;;;;;;2.42;100.00;100956.06;4948279;29;20452;-92
2023/12/06 05:10:04;;;;;;;83.45;34.10;;;;;;;2.42;100.00;100961.47;4928874;29;20039;-92
2023/12/06 05:12:29;;;;;;;75.50;34.60;;;;;;;2.44;100.00;100958.69;4921039;29;20036;-93
2023/12/06 05:14:54;;;;;;;78.85;33.40;;;;;;;2.41;100.00;100953.41;4954619;28;20110;-93
2023/12/06 05:17:20;;;;;;;78.00;33.97;;;;;;;2.41;100.00;100962.44;4921907;29;20046;-92
2023/12/06 05:19:46;;;;;;;83.63;34.42;;;;;;;2.41;100.00;100953.41;4908363;29;20114;-93
2023/12/06 05:22:11;;;;;;;83.03;34.60;;;;;;;2.37;100.00;100961.66;4923754;29;20039;-92
2023/12/06 05:24:37;;;;;;;81.07;34.92;;;;;;;2.41;100.00;100961.53;4955079;28;20055;-93
2023/12/06 05:27:02;;;;;;;73.65;33.67;;;;;;;2.43;100.00;100960.53;4947802;29;20044;-93
2023/12/06 05:29:28;;;;;;;77.55;34.42;;;;;;;2.42;100.00;100958.75;4914818;29;20035;-93
2023/12/06 05:31:53;;;;;;;79.85;35.60;;;;;;;2.46;100.00;100962.19;4953825;29;20485;-92
2023/12/06 05:34:21;;;;;;;74.95;33.65;;;;;;;2.41;100.00;100962.44;4911903;29;20551;-92
2023/12/06 05:36:47;;;;;;;75.28;34.88;;;;;;;2.44;100.00;100967.66;4966034;28;20035;-92
2023/12/06 05:39:12;;;;;;;78.68;34.53;;;;;;;2.46;100.00;100962.19;4928920;29;20037;-84
2023/12/06 05:41:38;;;;;;;74.07;34.78;;;;;;;2.46;100.00;100964.91;4935719;29;20081;-83
2023/12/06 05:44:07;;;;;;;74.28;33.20;;;;;;;2.46;100.00;100968.50;4935306;29;20035;-84
2023/12/06 05:46:34;;;;;;;72.75;32.90;;;;;;;2.48;100.00;100973.84;4936131;29;20019;-85
2023/12/06 05:49:00;;;;;;;71.10;33.58;;;;;;;2.52;100.00;100988.97;4921241;29;20035;-85
2023/12/06 05:51:26;;;;;;;78.70;34.78;;;;;;;2.53;100.00;100985.31;4904816;29;20041;-86
2023/12/06 05:53:53;;;;;;;74.10;34.60;;;;;;;2.53;100.00;100978.09;4936332;29;20043;-86
2023/12/06 05:56:18;;;;;;;67.00;31.45;;;;;;;2.52;100.00;100988.97;4936868;29;20038;-86
2023/12/06 05:58:44;;;;;;;83.88;34.00;;;;;;;2.57;100.00;100986.94;4920611;29;20027;-85
2023/12/06 06:01:09;;;;;;;75.07;31.73;;;;;;;2.55;100.00;100987.00;4920523;28;20031;-85
2023/12/06 06:03:36;;;;;;;68.63;31.98;;;;;;;2.57;100.00;100989.63;4941662;29;20035;-85
2023/12/06 06:06:06;;;;;;;78.43;32.75;;;;;;;2.62;100.00;100997.56;4920255;29;20511;-83
2023/12/06 06:08:32;;;;;;;68.88;31.90;;;;;;;2.60;100.00;100997.63;4950071;28;20031;-85
2023/12/06 06:10:58;;;;;;;70.13;33.47;;;;;;;2.65;100.00;100998.28;4920903;29;20193;-86
2023/12/06 06:13:28;;;;;;;69.93;33.05;;;;;;;2.67;100.00;100993.72;4951780;29;20440;-84
2023/12/06 06:15:54;;;;;;;76.22;30.83;;;;;;;2.68;100.00;101002.69;4921066;29;20559;-87
2023/12/06 06:18:20;;;;;;;69.22;33.55;;;;;;;2.70;100.00;100998.97;4953248;29;20053;-86
2023/12/06 06:20:46;;;;;;;72.97;32.50;;;;;;;2.74;100.00;100994.31;4957245;28;20026;-86
2023/12/06 06:23:12;;;;;;;79.03;32.97;;;;;;;2.73;100.00;100993.41;4949264;29;20165;-86
2023/12/06 06:25:37;;;;;;;72.38;32.50;;;;;;;2.81;100.00;101001.19;4952899;29;20043;-84
2023/12/06 06:28:03;;;;;;;74.53;33.28;;;;;;;2.80;100.00;101009.38;4920929;29;20032;-84
2023/12/06 06:30:29;;;;;;;76.68;32.88;;;;;;;2.82;100.00;101008.38;4932285;28;20118;-85
2023/12/06 06:32:55;;;;;;;72.18;32.67;;;;;;;2.84;100.00;101009.19;4921198;29;20055;-85
2023/12/06 06:35:21;;;;;;;72.60;31.80;;;;;;;2.87;100.00;101013.56;4933646;28;20034;-83
2023/12/06 06:37:47;;;;;;;70.82;31.42;;;;;;;2.87;100.00;101017.16;4951313;28;20089;-84
2023/12/06 06:40:14;;;;;;;66.47;32.55;;;;;;;2.89;100.00;101023.38;4934610;29;20043;-84
2023/12/06 06:42:40;;;;;;;78.43;32.95;;;;;;;2.93;100.00;101024.09;4950286;28;20031;-85
2023/12/06 06:45:08;;;;;;;72.53;31.80;;;;;;;2.94;100.00;101015.94;4952782;28;20043;-84
2023/12/06 06:47:36;;;;;;;68.68;30.17;;;;;;;2.99;100.00;101031.94;4922291;28;20094;-86
2023/12/06 06:50:03;;;;;;;86.80;35.00;;;;;;;2.99;100.00;101031.94;4951642;28;20086;-85
2023/12/06 06:52:29;;;;;;;78.85;31.90;;;;;;;2.99;100.00;101028.38;4953157;28;20473;-85
2023/12/06 06:54:56;;;;;;;78.35;33.28;;;;;;;3.01;100.00;101026.47;4939317;29;20094;-87
2023/12/06 06:57:22;;;;;;;72.88;32.33;;;;;;;2.98;100.00;101034.72;4920504;29;20126;-84
2023/12/06 06:59:47;;;;;;;72.93;32.08;;;;;;;3.05;100.00;101033.50;4939997;29;20126;-86
2023/12/06 07:02:13;;;;;;;71.63;34.05;;;;;;;3.03;100.00;101038.97;4916153;29;20378;-83
2023/12/06 07:04:38;;;;;;;70.28;32.63;;;;;;;3.06;100.00;101046.06;4939417;29;20050;-85
2023/12/06 07:07:04;;;;;;;77.13;32.47;;;;;;;3.05;100.00;101049.72;4952442;29;20024;-87
2023/12/06 07:09:29;;;;;;;69.03;30.55;;;;;;;3.12;100.00;101043.97;4939701;29;20540;-88
2023/12/06 07:11:55;;;;;;;71.65;30.58;;;;;;;3.08;100.00;101042.38;4938553;29;20050;-86
2023/12/06 07:14:21;;;;;;;68.40;30.38;;;;;;;3.11;100.00;101049.44;4940273;29;20035;-86
2023/12/06 07:16:47;;;;;;;75.97;31.88;;;;;;;3.13;100.00;101056.56;4924605;29;20039;-89
2023/12/06 07:19:12;;;;;;;72.47;32.92;;;;;;;3.13;100.00;101053.84;4925173;29;20122;-87
2023/12/06 07:21:38;;;;;;;72.43;31.42;;;;;;;3.13;100.00;101063.78;4925210;29;20038;-88
2023/12/06 07:24:04;;;;;;;74.68;32.72;;;;;;;3.13;100.00;101061.06;4956628;29;20141;-89
2023/12/06 07:26:29;;;;;;;64.25;30.98;;;;;;;3.12;100.00;101062.03;4953678;29;20035;-88
2023/12/06 07:28:54;;;;;;;70.70;31.83;;;;;;;3.12;100.00;101062.03;4962990;28;20027;-90
2023/12/06 07:31:20;;;;;;;69.60;32.10;;;;;;;3.16;100.00;101062.78;4917183;29;20446;-91
2023/12/06 07:33:47;;;;;;;68.55;31.83;;;;;;;3.13;100.00;101071.88;4943328;29;20035;-89
2023/12/06 07:36:14;;;;;;;70.80;30.45;;;;;;;3.13;100.00;101082.72;4925815;29;20063;-95
2023/12/06 07:38:39;;;;;;;75.32;32.88;;;;;;;3.19;100.00;101078.88;4925241;29;20090;-89
2023/12/06 07:41:05;;;;;;;75.07;32.08;;;;;;;3.15;100.00;101079.94;4925339;29;20433;-90
2023/12/06 07:43:30;;;;;;;71.70;32.13;;;;;;;3.16;100.00;101084.41;4941017;29;20102;-89
2023/12/06 07:45:56;;;;;;;69.82;30.85;;;;;;;3.18;100.00;101088.81;4911843;29;20054;-90
2023/12/06 07:48:21;;;;;;;69.85;30.55;;;;;;;3.15;100.00;101094.38;4921685;29;20036;-89
2023/12/06 07:50:47;;;;;;;67.60;32.15;;;;;;;3.11;100.00;101082.78;4940565;29;20485;-90
2023/12/06 07:53:13;;;;;;;67.75;30.85;;;;;;;3.16;100.00;101095.25;4908644;29;20039;-90
2023/12/06 07:55:40;;;;;;;73.43;31.77;;;;;;;3.12;100.00;101091.81;4956489;29;20027;-90
2023/12/06 07:58:06;;;;;;;69.07;31.25;;;;;;;3.17;100.00;101087.06;4924787;29;20035;-90
2023/12/06 08:00:33;;;;;;;68.95;31.08;;;;;;;3.20;100.00;101091.44;4928069;28;20031;-91
2023/12/06 08:02:58;;;;;;;58.17;30.05;;;;;;;3.17;100.00;101092.47;4966509;28;20023;-90
2023/12/06 08:05:24;;;;;;;68.85;31.60;;;;;;;3.18;100.00;101096.03;4909798;29;20050;-89
2023/12/06 08:07:49;;;;;;;62.00;28.83;;;;;;;3.22;100.00;101085.03;4930278;28;21358;-90
2023/12/06 08:10:22;;;;;;;68.93;30.08;;;;;;;3.23;100.00;101100.31;4919927;28;20070;-89
2023/12/06 08:12:48;;;;;;;66.72;29.73;;;;;;;3.24;100.00;101104.75;4964639;28;20057;-88
2023/12/06 08:15:14;;;;;;;66.32;28.10;;;;;;;3.23;100.00;101112.94;4932666;29;20416;-87
2023/12/06 08:17:40;;;;;;;63.85;30.83;;;;;;;3.30;100.00;101109.03;4939550;29;20035;-89
2023/12/06 08:20:10;;;;;;;60.10;28.45;;;;;;;3.28;100.00;101116.31;4922442;28;20547;-88
2023/12/06 08:22:35;;;;;;;63.63;28.33;;;;;;;3.25;100.00;101111.06;4918306;29;20074;-88
2023/12/06 08:25:01;;;;;;;66.88;29.70;;;;;;;3.23;100.00;101110.25;4922531;29;20521;-89
2023/12/06 08:27:28;;;;;;;63.45;29.67;;;;;;;3.28;100.00;101119.94;4933065;29;20097;-89
2023/12/06 08:29:57;;;;;;;75.05;29.20;;;;;;;3.36;100.00;101127.72;4922895;29;20093;-88
2023/12/06 08:32:24;;;;;;;57.90;28.88;;;;;;;3.35;100.00;101127.78;4935658;28;20474;-87
2023/12/06 08:34:50;;;;;;;60.35;28.35;;;;;;;3.34;100.00;101132.28;4953650;28;20042;-86
2023/12/06 08:37:15;;;;;;;58.97;28.65;;;;;;;3.38;100.00;101122.19;4955349;29;20015;-87
2023/12/06 08:39:41;;;;;;;61.88;29.35;;;;;;;3.41;100.00;101125.69;4922313;29;20039;-88
2023/12/06 08:42:08;;;;;;;62.00;27.25;;;;;;;3.41;100.00;101120.25;4927365;29;20512;-87
2023/12/06 08:44:33;;;;;;;53.30;27.45;;;;;;;3.46;100.00;101126.34;4935062;28;20105;-87
2023/12/06 08:46:59;;;;;;;64.00;27.60;;;;;;;3.48;100.00;101134.41;4953780;29;20043;-87
2023/12/06 08:49:24;;;;;;;58.45;26.23;;;;;;;3.48;100.00;101140.69;4907094;29;20019;-87
2023/12/06 08:51:50;;;;;;;59.58;27.48;;;;;;;3.49;100.00;101146.97;4953745;29;20031;-87
2023/12/06 08:54:15;;;;;;;63.13;28.15;;;;;;;3.47;100.00;101144.31;4918851;29;20023;-87
2023/12/06 08:56:41;;;;;;;55.78;26.58;;;;;;;3.52;100.00;101149.53;4916694;28;20075;-88
2023/12/06 08:59:07;;;;;;;58.70;28.08;;;;;;;3.57;100.00;101154.75;4922517;29;20409;-87
2023/12/06 09:01:34;;;;;;;63.65;28.08;;;;;;;3.61;100.00;101157.25;4938278;29;20046;-87
2023/12/06 09:03:59;;;;;;;70.03;29.65;;;;;;;3.55;100.00;101156.66;4906284;29;20122;-88
2023/12/06 09:06:25;;;;;;;55.10;27.00;;;;;;;3.56;100.00;101155.69;4956527;28;20098;-87
2023/12/06 09:08:51;;;;;;;59.92;28.00;;;;;;;3.68;100.00;101160.56;4939614;29;20548;-89
2023/12/06 09:11:20;;;;;;;58.58;28.55;;;;;;;3.66;100.00;101165.16;4934140;28;20031;-88
2023/12/06 09:13:46;;;;;;;64.70;29.50;;;;;;;3.66;100.00;101165.16;4925535;29;20031;-88
2023/12/06 09:16:12;;;;;;;56.35;28.48;;;;;;;3.70;100.00;101169.47;4926260;28;20031;-88
2023/12/06 09:18:37;;;;;;;65.60;29.83;;;;;;;3.73;100.00;101160.34;4948069;28;20042;-87
2023/12/06 09:21:04;;;;;;;60.42;28.05;;;;;;;3.80;100.00;101167.25;4921492;29;20035;-88
2023/12/06 09:23:33;;;;;;;66.40;27.75;;;;;;;3.83;100.00;101167.09;4953823;28;20059;-87
2023/12/06 09:25:59;;;;;;;60.33;27.70;;;;;;;3.83;100.00;101167.97;4934311;29;20404;-87
2023/12/06 09:28:24;;;;;;;59.30;27.92;;;;;;;3.84;100.00;101169.75;4935178;29;20027;-85
2023/12/06 09:30:50;;;;;;;64.43;28.77;;;;;;;3.88;100.00;101178.59;4950304;29;20114;-88
2023/12/06 09:33:15;;;;;;;54.42;26.25;;;;;;;3.89;100.00;101176.75;4905895;29;20031;-88
2023/12/06 09:35:41;;;;;;;50.28;25.92;;;;;;;3.94;100.00;101178.31;4936874;29;20037;-89
2023/12/06 09:38:06;;;;;;;61.08;26.77;;;;;;;3.94;100.00;101180.16;4924078;29;20173;-88
2023/12/06 09:40:33;;;;;;;57.83;28.20;;;;;;;3.97;100.00;101177.31;4916087;29;20469;-87
2023/12/06 09:43:01;;;;;;;54.50;25.58;;;;;;;3.94;100.00;101166.63;4921731;29;20030;-88
2023/12/06 09:45:27;;;;;;;55.50;24.42;;;;;;;3.93;100.00;101173.84;4917636;29;20031;-88
2023/12/06 09:47:54;;;;;;;53.65;24.63;;;;;;;4.03;100.00;101180.63;4937322;28;20067;-88
2023/12/06 09:50:20;;;;;;;49.22;25.98;;;;;;;4.10;100.00;101183.00;4953280;29;20043;-89
2023/12/06 09:52:50;;;;;;;54.85;26.30;;;;;;;4.15;100.00;101171.03;4938740;29;20066;-88
2023/12/06 09:55:19;;;;;;;54.15;26.05;;;;;;;4.55;100.00;101185.34;4953429;28;20468;-88
2023/12/06 09:57:46;;;;;;;50.97;25.33;;;;;;;4.59;100.00;101186.09;4936938;29;20027;-89
2023/12/06 10:00:16;;;;;;;54.30;24.58;;;;;;;4.67;100.00;101189.28;4950506;28;20036;-88
2023/12/06 10:02:52;;;;;;;44.05;23.58;;;;;;;4.90;100.00;101185.47;4953326;28;20118;-88
2023/12/06 10:05:17;;;;;;;39.53;21.05;;;;;;;4.60;100.00;101188.72;4953368;28;20555;-88
2023/12/06 10:07:44;;;;;;;45.30;22.65;;;;;;;4.51;100.00;101186.47;4944148;29;20031;-88
2023/12/06 10:10:16;;;;;;;41.45;21.50;;;;;;;4.32;100.00;101193.72;4921301;29;20031;-87
2023/12/06 10:12:57;;;;;;;43.70;23.45;;;;;;;4.41;100.00;101201.41;4948151;29;20054;-87
2023/12/06 10:15:23;;;;;;;43.67;22.13;;;;;;;4.65;100.00;101207.47;4949531;29;20047;-87
2023/12/06 10:17:49;;;;;;;45.20;21.30;;;;;;;4.76;100.00;101206.97;4953520;29;20031;-87
2023/12/06 10:20:16;;;;;;;36.30;19.85;;;;;;;4.85;100.00;101211.06;4936553;29;20040;-87
2023/12/06 10:22:41;;;;;;;41.35;20.08;;;;;;;4.92;100.00;101212.50;4952942;29;20054;-88
2023/12/06 10:25:10;;;;;;;44.20;20.80;;;;;;;5.02;100.00;101212.91;4953340;29;20067;-89
2023/12/06 10:27:36;;;;;;;39.50;20.20;;;;;;;4.88;100.00;101206.34;4935170;29;20500;-89
2023/12/06 10:30:04;;;;;;;36.13;18.38;;;;;;;5.00;100.00;101202.16;4951630;28;20027;-88
2023/12/06 10:32:30;;;;;;;34.38;19.05;;;;;;;5.06;100.00;101200.97;4953104;28;20114;-86
2023/12/06 10:34:59;;;;;;;39.80;17.05;;;;;;;5.11;100.00;101190.75;4956031;29;20508;-87
2023/12/06 10:37:26;;;;;;;33.85;16.63;;;;;;;5.10;100.00;101194.41;4956616;28;20500;-87
2023/12/06 10:39:59;;;;;;;30.77;16.00;;;;;;;5.30;100.00;101193.41;4938845;29;20122;-88
2023/12/06 10:42:33;;;;;;;33.28;16.45;;;;;;;5.26;100.00;101198.13;4938718;29;20023;-87
2023/12/06 10:45:00;;;;;;;24.90;15.68;;;;;;;5.33;100.00;101199.56;4955268;29;20031;-87
2023/12/06 10:47:28;;;;;;;34.30;15.20;;;;;;;5.43;100.00;101202.66;4953901;29;20441;-88
2023/12/06 10:49:54;;;;;;;32.95;15.32;;;;;;;5.45;100.00;101194.44;4932687;29;20031;-87
2023/12/06 10:52:22;;;;;;;28.80;14.77;;;;;;;5.63;100.00;101203.47;4963203;28;20488;-87
2023/12/06 10:55:00;;;;;;;32.45;14.07;;;;;;;5.56;100.00;101197.47;4939976;29;20035;-88
2023/12/06 10:57:27;;;;;;;30.17;14.70;;;;;;;5.80;100.00;101197.13;4943422;29;20570;-87
2023/12/06 10:59:57;;;;;;;25.75;15.07;;;;;;;5.78;100.00;101197.19;4928821;29;20046;-86
2023/12/06 11:02:23;;;;;;;26.20;14.38;;;;;;;5.90;100.00;101195.66;4953856;28;20441;-86